createdAt,value
2017-08-15T00:00:01.978Z,17.10
2017-08-15T00:02:28.286Z,17.10
2017-08-15T00:04:54.608Z,17.20
2017-08-15T00:07:20.902Z,17.10
2017-08-15T00:09:47.214Z,17.20
2017-08-15T00:12:14.489Z,17.10
2017-08-15T00:14:40.782Z,17.00
2017-08-15T00:17:07.080Z,17.00
2017-08-15T00:19:34.124Z,17.10
2017-08-15T00:22:01.173Z,17.10
2017-08-15T00:24:28.205Z,17.20
2017-08-15T00:26:54.655Z,17.10
2017-08-15T00:29:20.956Z,17.20
2017-08-15T00:31:47.261Z,17.20
2017-08-15T00:34:13.585Z,17.30
2017-08-15T00:36:39.921Z,17.20
2017-08-15T00:39:06.229Z,17.20
2017-08-15T00:41:32.533Z,17.20
2017-08-15T00:43:58.866Z,17.20
2017-08-15T00:46:25.184Z,17.30
2017-08-15T00:48:51.665Z,17.30
2017-08-15T00:51:17.993Z,17.40
2017-08-15T00:53:44.308Z,17.30
2017-08-15T00:56:10.628Z,17.30
2017-08-15T00:58:36.952Z,17.30
2017-08-15T01:01:03.276Z,17.30
2017-08-15T01:03:29.598Z,17.20
2017-08-15T01:05:56.649Z,17.20
2017-08-15T01:08:23.692Z,17.10
2017-08-15T01:10:49.988Z,17.10
2017-08-15T01:13:16.286Z,17.00
2017-08-15T01:15:42.581Z,17.00
2017-08-15T01:18:08.890Z,16.90
2017-08-15T01:20:35.225Z,16.80
2017-08-15T01:23:02.252Z,16.60
2017-08-15T01:25:28.557Z,16.60
2017-08-15T01:27:54.862Z,16.60
2017-08-15T01:30:21.168Z,16.50
2017-08-15T01:32:47.457Z,16.50
2017-08-15T01:35:13.744Z,16.40
2017-08-15T01:37:48.060Z,16.40
2017-08-15T01:40:14.357Z,16.30
2017-08-15T01:42:40.652Z,16.10
2017-08-15T01:45:06.948Z,16.10
2017-08-15T01:47:33.241Z,16.10
2017-08-15T01:49:59.540Z,16.10
2017-08-15T01:52:25.848Z,16.10
2017-08-15T01:54:52.158Z,16.00
2017-08-15T01:57:20.195Z,15.90
2017-08-15T01:59:46.480Z,15.90
2017-08-15T02:02:12.793Z,15.90
2017-08-15T02:04:40.132Z,16.00
2017-08-15T02:07:06.418Z,16.10
2017-08-15T02:09:32.717Z,16.10
2017-08-15T02:11:59.008Z,16.10
2017-08-15T02:14:26.300Z,16.10
2017-08-15T02:16:53.620Z,16.10
2017-08-15T02:19:19.925Z,16.10
2017-08-15T02:21:46.231Z,16.10
2017-08-15T02:24:12.601Z,16.10
2017-08-15T02:26:38.905Z,16.10
2017-08-15T02:29:05.198Z,16.10
2017-08-15T02:31:31.496Z,16.10
2017-08-15T02:33:57.809Z,16.10
2017-08-15T02:36:24.093Z,16.10
2017-08-15T02:38:50.388Z,16.00
2017-08-15T02:41:17.685Z,16.10
2017-08-15T02:43:43.978Z,16.00
2017-08-15T02:46:10.268Z,16.10
2017-08-15T02:48:36.568Z,16.10
2017-08-15T02:51:02.869Z,16.20
2017-08-15T02:53:29.904Z,16.10
2017-08-15T02:55:57.066Z,16.10
2017-08-15T02:58:24.101Z,16.10
2017-08-15T03:00:50.392Z,16.10
2017-08-15T03:03:16.690Z,16.00
2017-08-15T03:05:43.002Z,16.00
2017-08-15T03:08:10.037Z,16.00
2017-08-15T03:10:36.343Z,15.90
2017-08-15T03:13:02.648Z,16.00
2017-08-15T03:15:28.944Z,16.00
2017-08-15T03:17:55.230Z,15.90
2017-08-15T03:20:21.538Z,15.90
2017-08-15T03:22:47.832Z,15.90
2017-08-15T03:25:14.120Z,15.90
2017-08-15T03:27:40.421Z,16.00
2017-08-15T03:30:06.717Z,16.00
2017-08-15T03:32:33.020Z,16.00
2017-08-15T03:34:59.308Z,16.00
2017-08-15T03:37:26.646Z,16.00
2017-08-15T03:39:52.978Z,16.00
2017-08-15T03:42:20.329Z,15.90
2017-08-15T03:44:46.637Z,16.00
2017-08-15T03:47:13.678Z,16.00
2017-08-15T03:49:39.969Z,15.90
2017-08-15T03:52:06.278Z,16.00
2017-08-15T03:54:32.569Z,16.00
2017-08-15T03:56:58.882Z,16.10
2017-08-15T03:59:25.185Z,16.00
2017-08-15T04:01:51.507Z,16.00
2017-08-15T04:04:17.796Z,15.90
2017-08-15T04:06:44.117Z,16.00
2017-08-15T04:09:12.161Z,16.00
2017-08-15T04:11:38.454Z,16.00
2017-08-15T04:14:04.765Z,16.10
2017-08-15T04:16:31.133Z,16.10
2017-08-15T04:18:57.445Z,16.10
2017-08-15T04:21:23.763Z,16.10
2017-08-15T04:23:50.065Z,16.10
2017-08-15T04:26:18.136Z,16.30
2017-08-15T04:28:44.441Z,16.30
2017-08-15T04:31:10.737Z,16.30
2017-08-15T04:33:37.025Z,16.30
2017-08-15T04:36:04.093Z,16.40
2017-08-15T04:38:30.381Z,16.30
2017-08-15T04:40:56.669Z,16.40
2017-08-15T04:43:22.958Z,16.40
2017-08-15T04:45:49.988Z,16.50
2017-08-15T04:48:16.289Z,16.40
2017-08-15T04:50:42.585Z,16.50
2017-08-15T04:53:08.904Z,16.50
2017-08-15T04:55:35.219Z,16.60
2017-08-15T04:58:01.514Z,16.60
2017-08-15T05:00:27.805Z,16.80
2017-08-15T05:02:54.094Z,16.70
2017-08-15T05:05:20.386Z,16.80
2017-08-15T05:07:46.675Z,16.80
2017-08-15T05:10:13.708Z,16.90
2017-08-15T05:12:40.013Z,16.80
2017-08-15T05:15:06.327Z,17.00
2017-08-15T05:17:32.618Z,17.10
2017-08-15T05:19:58.909Z,17.10
2017-08-15T05:22:25.229Z,17.20
2017-08-15T05:24:51.517Z,17.30
2017-08-15T05:27:17.828Z,17.40
2017-08-15T05:29:44.864Z,17.50
2017-08-15T05:32:11.153Z,17.50
2017-08-15T05:34:37.449Z,17.60
2017-08-15T05:37:03.748Z,17.80
2017-08-15T05:39:31.045Z,17.90
2017-08-15T05:41:57.349Z,18.00
2017-08-15T05:44:24.380Z,18.10
2017-08-15T05:46:52.417Z,18.20
2017-08-15T05:49:18.705Z,18.20
2017-08-15T05:51:44.996Z,18.30
2017-08-15T05:54:11.289Z,18.40
2017-08-15T05:56:37.574Z,18.50
2017-08-15T05:59:04.604Z,18.70
2017-08-15T06:01:30.898Z,18.70
2017-08-15T06:03:57.196Z,18.80
2017-08-15T06:06:23.484Z,19.00
2017-08-15T06:08:49.773Z,19.20
2017-08-15T06:11:16.056Z,19.50
2017-08-15T06:13:42.345Z,19.60
2017-08-15T06:16:08.629Z,19.70
2017-08-15T06:18:35.661Z,19.90
2017-08-15T06:21:01.953Z,19.90
2017-08-15T06:23:28.276Z,20.10
2017-08-15T06:25:54.576Z,20.20
2017-08-15T06:28:20.876Z,20.40
2017-08-15T06:30:47.157Z,20.60
2017-08-15T06:33:13.446Z,20.70
2017-08-15T06:35:40.492Z,21.10
2017-08-15T06:38:07.513Z,21.30
2017-08-15T06:40:33.809Z,21.30
2017-08-15T06:43:01.109Z,21.50
2017-08-15T06:45:27.409Z,21.60
2017-08-15T06:47:53.700Z,21.90
2017-08-15T06:50:20.001Z,22.00
2017-08-15T06:52:46.289Z,22.20
2017-08-15T06:55:12.579Z,22.30
2017-08-15T06:57:38.869Z,22.50
2017-08-15T07:00:05.186Z,22.60
2017-08-15T07:02:31.476Z,22.80
2017-08-15T07:04:57.770Z,22.80
2017-08-15T07:07:24.052Z,23.00
2017-08-15T07:09:50.336Z,23.10
2017-08-15T07:12:17.369Z,23.30
2017-08-15T07:14:43.720Z,23.30
2017-08-15T07:17:10.765Z,23.40
2017-08-15T07:19:37.809Z,23.60
2017-08-15T07:22:04.839Z,23.70
2017-08-15T07:24:31.129Z,23.70
2017-08-15T07:26:57.418Z,23.90
2017-08-15T07:29:24.448Z,23.90
2017-08-15T07:31:50.741Z,23.80
2017-08-15T07:34:17.028Z,23.90
2017-08-15T07:36:43.373Z,23.90
2017-08-15T07:39:09.654Z,24.00
2017-08-15T07:41:35.938Z,24.20
2017-08-15T07:44:02.225Z,24.30
2017-08-15T07:46:28.512Z,24.60
2017-08-15T07:48:54.810Z,24.90
2017-08-15T07:51:21.106Z,25.10
2017-08-15T07:53:47.402Z,25.40
2017-08-15T07:56:13.693Z,25.30
2017-08-15T07:58:40.717Z,25.70
2017-08-15T08:01:07.001Z,25.60
2017-08-15T08:03:33.295Z,25.70
2017-08-15T08:06:00.325Z,26.10
2017-08-15T08:08:26.617Z,26.10
2017-08-15T08:10:52.909Z,26.40
2017-08-15T08:13:19.196Z,26.40
2017-08-15T08:15:45.477Z,26.50
2017-08-15T08:18:11.777Z,26.50
2017-08-15T08:20:38.841Z,26.70
2017-08-15T08:23:05.137Z,26.70
2017-08-15T08:25:31.421Z,26.90
2017-08-15T08:27:57.709Z,27.00
2017-08-15T08:30:24.745Z,27.50
2017-08-15T08:32:51.032Z,27.50
2017-08-15T08:35:17.314Z,27.70
2017-08-15T08:37:44.342Z,28.00
2017-08-15T08:40:10.624Z,27.90
2017-08-15T08:42:36.904Z,28.00
2017-08-15T08:45:03.200Z,28.00
2017-08-15T08:47:29.490Z,28.00
2017-08-15T08:49:56.508Z,28.30
2017-08-15T08:52:22.808Z,28.30
2017-08-15T08:54:49.113Z,28.50
2017-08-15T08:57:15.397Z,28.50
2017-08-15T08:59:41.691Z,28.40
2017-08-15T09:02:07.985Z,28.50
2017-08-15T09:04:35.038Z,28.30
2017-08-15T09:07:01.325Z,28.30
2017-08-15T09:09:27.631Z,28.20
2017-08-15T09:11:53.946Z,28.10
2017-08-15T09:14:21.281Z,28.20
2017-08-15T09:16:47.593Z,28.50
2017-08-15T09:19:14.640Z,28.90
2017-08-15T09:21:41.737Z,28.90
2017-08-15T09:24:08.030Z,28.90
2017-08-15T09:26:34.357Z,28.80
2017-08-15T09:29:01.407Z,28.90
2017-08-15T09:31:27.701Z,28.90
2017-08-15T09:33:54.023Z,29.00
2017-08-15T09:36:20.334Z,29.20
2017-08-15T09:38:46.635Z,29.60
2017-08-15T09:41:12.954Z,29.80
2017-08-15T09:43:40.245Z,29.90
2017-08-15T09:46:06.568Z,29.90
2017-08-15T09:48:32.881Z,30.20
2017-08-15T09:51:00.217Z,30.20
2017-08-15T09:53:27.256Z,30.30
2017-08-15T09:55:54.276Z,30.40
2017-08-15T09:58:26.821Z,30.30
2017-08-15T10:00:53.129Z,30.50
2017-08-15T10:03:19.435Z,30.40
2017-08-15T10:05:46.476Z,30.70
2017-08-15T10:08:13.505Z,30.60
2017-08-15T10:10:39.826Z,30.60
2017-08-15T10:13:06.121Z,30.80
2017-08-15T10:15:32.423Z,30.80
2017-08-15T10:17:59.493Z,31.10
2017-08-15T10:20:26.828Z,31.00
2017-08-15T10:22:53.884Z,31.20
2017-08-15T10:25:20.174Z,31.20
2017-08-15T10:27:46.470Z,31.40
2017-08-15T10:30:12.783Z,31.40
2017-08-15T10:32:39.073Z,31.60
2017-08-15T10:35:05.365Z,31.30
2017-08-15T10:37:31.664Z,31.20
2017-08-15T10:39:57.964Z,31.30
2017-08-15T10:42:25.009Z,31.30
2017-08-15T10:44:52.306Z,31.20
2017-08-15T10:47:18.604Z,31.30
2017-08-15T10:49:45.629Z,30.70
2017-08-15T10:52:11.926Z,30.60
2017-08-15T10:54:38.273Z,30.70
2017-08-15T10:57:04.609Z,30.60
2017-08-15T10:59:30.925Z,30.50
2017-08-15T11:01:57.219Z,30.40
2017-08-15T11:04:23.508Z,30.40
2017-08-15T11:06:49.796Z,30.20
2017-08-15T11:09:16.085Z,30.30
2017-08-15T11:11:42.369Z,30.50
2017-08-15T11:14:08.656Z,30.40
2017-08-15T11:16:34.945Z,30.30
2017-08-15T11:19:01.225Z,30.30
2017-08-15T11:21:27.525Z,30.60
2017-08-15T11:23:54.558Z,31.00
2017-08-15T11:26:20.841Z,31.00
2017-08-15T11:28:47.127Z,31.00
2017-08-15T11:31:13.408Z,31.00
2017-08-15T11:33:39.702Z,31.00
2017-08-15T11:36:06.732Z,31.30
2017-08-15T11:38:33.769Z,31.40
2017-08-15T11:41:00.060Z,31.30
2017-08-15T11:43:26.345Z,31.40
2017-08-15T11:45:53.373Z,32.00
2017-08-15T11:48:19.682Z,31.90
2017-08-15T11:50:45.990Z,32.10
2017-08-15T11:53:12.289Z,32.10
2017-08-15T11:55:38.577Z,32.30
2017-08-15T11:58:04.865Z,32.20
2017-08-15T12:00:31.153Z,32.40
2017-08-15T12:02:57.437Z,32.60
2017-08-15T12:05:23.741Z,33.00
2017-08-15T12:07:50.050Z,32.70
2017-08-15T12:10:17.082Z,32.50
2017-08-15T12:12:43.373Z,32.50
2017-08-15T12:15:09.680Z,32.60
2017-08-15T12:17:35.964Z,32.40
2017-08-15T12:20:02.273Z,32.20
2017-08-15T12:22:28.554Z,31.90
2017-08-15T12:24:54.836Z,31.90
2017-08-15T12:27:21.130Z,32.10
2017-08-15T12:29:47.428Z,32.20
2017-08-15T12:32:14.469Z,31.90
2017-08-15T12:34:40.789Z,31.90
2017-08-15T12:37:07.080Z,31.80
2017-08-15T12:39:33.373Z,32.20
2017-08-15T12:42:00.401Z,33.20
2017-08-15T12:44:26.693Z,33.20
2017-08-15T12:46:52.980Z,33.70
2017-08-15T12:49:20.006Z,34.90
2017-08-15T12:51:46.293Z,34.80
2017-08-15T12:54:12.582Z,35.30
2017-08-15T12:56:39.626Z,35.00
2017-08-15T12:59:05.913Z,35.00
2017-08-15T13:01:32.205Z,34.90
2017-08-15T13:03:58.525Z,34.90
2017-08-15T13:06:25.817Z,35.20
2017-08-15T13:08:52.101Z,35.30
2017-08-15T13:11:18.386Z,35.20
2017-08-15T13:13:44.724Z,34.60
2017-08-15T13:16:11.013Z,34.20
2017-08-15T13:18:37.298Z,33.70
2017-08-15T13:21:03.613Z,33.10
2017-08-15T13:23:29.914Z,32.90
2017-08-15T13:25:56.245Z,32.60
2017-08-15T13:28:22.557Z,32.40
2017-08-15T13:30:48.873Z,33.00
2017-08-15T13:33:15.195Z,33.90
2017-08-15T13:35:41.514Z,34.90
2017-08-15T13:38:08.041Z,35.80
2017-08-15T13:40:34.365Z,36.60
2017-08-15T13:43:00.689Z,36.60
2017-08-15T13:45:27.029Z,36.70
2017-08-15T13:47:53.345Z,37.20
2017-08-15T13:50:19.658Z,37.40
2017-08-15T13:52:45.953Z,37.30
2017-08-15T13:55:12.265Z,37.90
2017-08-15T13:57:38.570Z,38.90
2017-08-15T14:00:04.880Z,39.60
2017-08-15T14:02:31.197Z,40.30
2017-08-15T14:04:57.517Z,41.10
2017-08-15T14:07:23.861Z,41.40
2017-08-15T14:09:50.189Z,40.30
2017-08-15T14:12:17.493Z,39.50
2017-08-15T14:14:43.821Z,38.90
2017-08-15T14:17:10.893Z,39.40
2017-08-15T14:19:37.218Z,39.40
2017-08-15T14:22:03.521Z,39.50
2017-08-15T14:24:30.582Z,39.80
2017-08-15T14:26:58.610Z,39.50
2017-08-15T14:29:24.937Z,39.50
2017-08-15T14:31:51.237Z,38.90
2017-08-15T14:34:18.541Z,38.80
2017-08-15T14:36:44.849Z,39.50
2017-08-15T14:39:11.166Z,40.50
2017-08-15T14:41:37.496Z,41.10
2017-08-15T14:44:03.851Z,41.40
2017-08-15T14:46:30.170Z,41.00
2017-08-15T14:48:56.485Z,40.70
2017-08-15T14:51:22.797Z,40.60
2017-08-15T14:53:49.116Z,40.70
2017-08-15T14:56:15.432Z,40.10
2017-08-15T14:58:42.485Z,40.50
2017-08-15T15:01:09.540Z,41.30
2017-08-15T15:03:35.857Z,41.20
2017-08-15T15:06:02.176Z,41.60
2017-08-15T15:08:28.492Z,41.30
2017-08-15T15:10:54.806Z,40.80
2017-08-15T15:13:21.126Z,41.00
2017-08-15T15:15:47.439Z,41.00
2017-08-15T15:18:13.777Z,40.90
2017-08-15T15:20:40.080Z,40.50
2017-08-15T15:23:06.400Z,40.10
2017-08-15T15:25:33.460Z,40.20
2017-08-15T15:27:59.764Z,40.20
2017-08-15T15:30:26.816Z,40.40
2017-08-15T15:32:53.861Z,40.60
2017-08-15T15:35:20.181Z,40.60
2017-08-15T15:37:46.505Z,40.60
2017-08-15T15:40:12.826Z,40.30
2017-08-15T15:42:39.153Z,40.40
2017-08-15T15:45:05.461Z,41.00
2017-08-15T15:47:32.779Z,41.60
2017-08-15T15:49:59.090Z,41.70
2017-08-15T15:52:25.389Z,42.30
2017-08-15T15:54:51.684Z,42.80
2017-08-15T15:57:17.976Z,42.10
2017-08-15T15:59:45.037Z,41.10
2017-08-15T16:02:11.381Z,41.00
2017-08-15T16:04:37.673Z,40.80
2017-08-15T16:07:03.960Z,40.80
2017-08-15T16:09:30.244Z,40.40
2017-08-15T16:11:57.268Z,40.10
2017-08-15T16:14:23.552Z,40.10
2017-08-15T16:16:49.845Z,40.30
2017-08-15T16:19:16.138Z,40.40
2017-08-15T16:21:42.429Z,40.20
2017-08-15T16:24:08.709Z,39.80
2017-08-15T16:26:34.989Z,40.10
2017-08-15T16:29:01.270Z,40.60
2017-08-15T16:31:27.553Z,41.10
2017-08-15T16:33:53.837Z,40.70
2017-08-15T16:36:20.129Z,40.30
2017-08-15T16:38:46.409Z,41.00
2017-08-15T16:41:13.452Z,42.10
2017-08-15T16:43:39.764Z,42.10
2017-08-15T16:46:06.083Z,42.70
2017-08-15T16:48:32.401Z,43.40
2017-08-15T16:50:58.726Z,44.00
2017-08-15T16:53:25.033Z,43.20
2017-08-15T16:55:51.333Z,42.00
2017-08-15T16:58:18.393Z,40.80
2017-08-15T17:00:44.705Z,40.70
2017-08-15T17:03:11.017Z,40.90
2017-08-15T17:05:38.334Z,40.50
2017-08-15T17:08:04.637Z,39.80
2017-08-15T17:10:31.677Z,39.00
2017-08-15T17:12:58.706Z,38.40
2017-08-15T17:15:24.992Z,38.30
2017-08-15T17:17:51.285Z,37.70
2017-08-15T17:20:18.313Z,36.80
2017-08-15T17:22:44.605Z,36.70
2017-08-15T17:25:10.909Z,36.70
2017-08-15T17:27:37.200Z,36.30
2017-08-15T17:30:03.527Z,35.70
2017-08-15T17:32:29.814Z,34.80
2017-08-15T17:34:57.142Z,33.60
2017-08-15T17:37:23.456Z,32.80
2017-08-15T17:39:50.522Z,31.00
2017-08-15T17:42:16.841Z,30.90
2017-08-15T17:44:43.143Z,30.00
2017-08-15T17:47:09.434Z,29.30
2017-08-15T17:49:35.721Z,28.60
2017-08-15T17:52:02.758Z,27.60
2017-08-15T17:54:29.806Z,27.00
2017-08-15T17:56:56.089Z,26.90
2017-08-15T17:59:22.387Z,26.40
2017-08-15T18:01:48.673Z,26.00
2017-08-15T18:04:14.961Z,25.70
2017-08-15T18:06:41.255Z,25.40
2017-08-15T18:09:08.298Z,24.80
2017-08-15T18:11:34.589Z,24.80
2017-08-15T18:14:00.877Z,24.70
2017-08-15T18:16:27.902Z,24.20
2017-08-15T18:18:54.943Z,23.90
2017-08-15T18:21:21.233Z,23.90
2017-08-15T18:23:47.548Z,23.80
2017-08-15T18:26:13.841Z,23.70
2017-08-15T18:28:40.873Z,23.40
2017-08-15T18:31:07.158Z,23.30
2017-08-15T18:33:33.453Z,23.20
2017-08-15T18:35:59.737Z,23.10
2017-08-15T18:38:26.029Z,23.00
2017-08-15T18:40:52.328Z,22.80
2017-08-15T18:43:18.629Z,22.70
2017-08-15T18:45:44.910Z,22.60
2017-08-15T18:48:11.945Z,22.70
2017-08-15T18:50:38.976Z,22.70
2017-08-15T18:53:05.265Z,22.60
2017-08-15T18:55:31.565Z,22.50
2017-08-15T18:57:57.848Z,22.60
2017-08-15T19:00:24.134Z,22.60
2017-08-15T19:02:50.418Z,22.50
2017-08-15T19:05:16.709Z,22.60
2017-08-15T19:07:42.998Z,22.50
2017-08-15T19:10:10.028Z,22.40
2017-08-15T19:12:36.334Z,22.40
2017-08-15T19:15:02.645Z,22.40
2017-08-15T19:17:28.953Z,22.40
2017-08-15T19:19:55.245Z,22.20
2017-08-15T19:22:22.286Z,22.20
2017-08-15T19:24:48.578Z,22.20
2017-08-15T19:27:14.871Z,22.20
2017-08-15T19:29:42.920Z,22.10
2017-08-15T19:32:09.208Z,22.10
2017-08-15T19:34:35.516Z,22.00
2017-08-15T19:37:01.801Z,21.90
2017-08-15T19:39:28.092Z,21.90
2017-08-15T19:41:54.374Z,22.00
2017-08-15T19:44:20.660Z,22.00
2017-08-15T19:46:46.949Z,22.00
2017-08-15T19:49:13.993Z,21.90
2017-08-15T19:51:41.025Z,21.90
2017-08-15T19:54:08.068Z,21.90
2017-08-15T19:56:34.362Z,21.90
2017-08-15T19:59:00.660Z,21.90
2017-08-15T20:01:26.945Z,21.70
2017-08-15T20:03:53.237Z,21.40
2017-08-15T20:06:19.521Z,21.30
2017-08-15T20:08:46.540Z,21.20
2017-08-15T20:11:12.826Z,21.10
2017-08-15T20:13:39.122Z,21.10
2017-08-15T20:16:06.149Z,20.90
2017-08-15T20:18:32.429Z,20.90
2017-08-15T20:20:58.709Z,20.90
2017-08-15T20:23:25.006Z,20.80
2017-08-15T20:25:51.294Z,20.90
2017-08-15T20:28:18.316Z,20.90
2017-08-15T20:30:44.610Z,20.90
2017-08-15T20:33:10.939Z,20.90
2017-08-15T20:35:37.560Z,20.90
2017-08-15T20:38:05.183Z,21.00
2017-08-15T20:40:31.546Z,21.00
2017-08-15T20:42:58.101Z,20.90
2017-08-15T20:45:24.385Z,21.00
2017-08-15T20:47:51.450Z,21.00
2017-08-15T20:50:17.736Z,21.00
2017-08-15T20:52:44.046Z,20.90
2017-08-15T20:55:10.338Z,20.90
2017-08-15T20:57:36.680Z,21.00
2017-08-15T21:00:03.001Z,21.00
2017-08-15T21:02:29.353Z,20.90
2017-08-15T21:04:56.800Z,20.80
2017-08-15T21:07:23.154Z,20.70
2017-08-15T21:09:49.445Z,20.60
2017-08-15T21:12:15.748Z,20.50
2017-08-15T21:14:42.043Z,20.40
2017-08-15T21:17:08.328Z,20.40
2017-08-15T21:19:34.625Z,20.30
2017-08-15T21:22:00.905Z,20.30
2017-08-15T21:24:27.213Z,20.30
2017-08-15T21:26:54.241Z,20.10
2017-08-15T21:29:20.540Z,20.10
2017-08-15T21:31:46.833Z,20.10
2017-08-15T21:34:13.126Z,20.10
2017-08-15T21:36:39.422Z,20.10
2017-08-15T21:39:05.773Z,20.00
2017-08-15T21:41:32.066Z,20.00
2017-08-15T21:43:58.426Z,19.80
2017-08-15T21:46:24.741Z,19.80
2017-08-15T21:48:51.036Z,19.80
2017-08-15T21:51:17.385Z,19.80
2017-08-15T21:53:43.688Z,19.90
2017-08-15T21:56:11.733Z,19.80
2017-08-15T21:58:38.022Z,19.80
2017-08-15T22:01:10.424Z,19.80
2017-08-15T22:03:37.733Z,19.90
2017-08-15T22:06:04.029Z,20.00
2017-08-15T22:08:31.057Z,20.10
2017-08-15T22:10:57.358Z,20.10
2017-08-15T22:13:24.660Z,20.20
2017-08-15T22:15:51.697Z,20.30
2017-08-15T22:18:17.985Z,20.30
2017-08-15T22:20:44.268Z,20.40
2017-08-15T22:23:10.561Z,20.40
2017-08-15T22:25:36.897Z,20.50
2017-08-15T22:28:03.189Z,20.40
2017-08-15T22:30:29.509Z,20.00
2017-08-15T22:32:55.800Z,19.80
2017-08-15T22:35:23.097Z,19.70
2017-08-15T22:37:49.404Z,19.70
2017-08-15T22:40:16.440Z,19.90
2017-08-15T22:42:43.469Z,19.90
2017-08-15T22:45:09.760Z,19.80
2017-08-15T22:47:36.037Z,19.90
2017-08-15T22:50:02.338Z,19.90
2017-08-15T22:52:28.627Z,19.80
2017-08-15T22:54:54.909Z,19.80
2017-08-15T22:57:21.205Z,19.70
2017-08-15T22:59:47.849Z,19.80
2017-08-15T23:02:15.170Z,19.80
2017-08-15T23:04:41.498Z,19.60
2017-08-15T23:07:08.809Z,19.50
2017-08-15T23:09:35.101Z,19.40
2017-08-15T23:12:01.393Z,19.30
2017-08-15T23:14:28.412Z,19.00
2017-08-15T23:16:54.701Z,18.90
2017-08-15T23:19:20.994Z,18.90
2017-08-15T23:21:47.312Z,18.70
2017-08-15T23:24:13.613Z,18.50
2017-08-15T23:26:39.898Z,18.40
2017-08-15T23:29:07.909Z,18.40
2017-08-15T23:31:34.193Z,18.30
2017-08-15T23:34:01.216Z,18.30
2017-08-15T23:36:27.506Z,18.20
2017-08-15T23:38:53.798Z,18.30
2017-08-15T23:41:20.834Z,18.20
2017-08-15T23:43:48.852Z,18.30
2017-08-15T23:46:15.133Z,18.20
2017-08-15T23:48:42.186Z,18.10
2017-08-15T23:51:10.244Z,18.10
2017-08-15T23:53:36.530Z,18.10
2017-08-15T23:56:03.846Z,18.10
2017-08-15T23:58:30.150Z,18.10
